createdAt,value
2022-10-19T00:00:55.991Z,20.5
2022-10-19T00:01:57.779Z,20.5
2022-10-19T00:02:59.824Z,20.5
2022-10-19T00:04:06.413Z,20.5
2022-10-19T00:05:10.737Z,20.5
2022-10-19T00:06:12.361Z,20.6
2022-10-19T00:07:13.926Z,20.6
2022-10-19T00:08:15.469Z,20.6
2022-10-19T00:09:17.009Z,20.6
2022-10-19T00:10:18.602Z,20.6
2022-10-19T00:11:20.186Z,20.6
2022-10-19T00:12:21.706Z,20.6
2022-10-19T00:13:23.286Z,20.6
2022-10-19T00:14:24.827Z,20.6
2022-10-19T00:15:26.367Z,20.6
2022-10-19T00:16:27.969Z,20.6
2022-10-19T00:17:29.578Z,20.6
2022-10-19T00:18:31.272Z,20.7
2022-10-19T00:19:32.836Z,20.7
2022-10-19T00:20:34.392Z,20.6
2022-10-19T00:21:35.984Z,20.7
2022-10-19T00:22:37.518Z,20.7
2022-10-19T00:23:39.064Z,20.7
2022-10-19T00:24:40.596Z,20.7
2022-10-19T00:25:42.158Z,20.7
2022-10-19T00:26:43.750Z,20.7
2022-10-19T00:27:45.303Z,20.7
2022-10-19T00:28:47.134Z,20.7
2022-10-19T00:29:48.915Z,20.7
2022-10-19T00:30:50.539Z,20.7
2022-10-19T00:31:52.147Z,20.6
2022-10-19T00:32:53.739Z,20.7
2022-10-19T00:33:55.368Z,20.7
2022-10-19T00:34:56.903Z,20.7
2022-10-19T00:35:58.498Z,20.7
2022-10-19T00:37:00.038Z,20.7
2022-10-19T00:38:01.590Z,20.7
2022-10-19T00:39:03.135Z,20.7
2022-10-19T00:40:04.674Z,20.7
2022-10-19T00:41:06.314Z,20.7
2022-10-19T00:42:07.862Z,20.7
2022-10-19T00:43:09.416Z,20.7
2022-10-19T00:44:11.042Z,20.7
2022-10-19T00:45:12.579Z,20.7
2022-10-19T00:46:14.157Z,20.7
2022-10-19T00:47:15.762Z,20.8
2022-10-19T00:48:17.346Z,20.8
2022-10-19T00:49:18.969Z,20.8
2022-10-19T00:50:20.519Z,20.8
2022-10-19T00:51:22.139Z,20.8
2022-10-19T00:52:23.736Z,20.8
2022-10-19T00:53:25.279Z,20.8
2022-10-19T00:54:26.833Z,20.8
2022-10-19T00:55:28.396Z,20.8
2022-10-19T00:56:29.940Z,20.8
2022-10-19T00:57:31.552Z,20.8
2022-10-19T00:58:33.105Z,20.8
2022-10-19T00:59:34.658Z,20.8
2022-10-19T01:00:36.193Z,20.8
2022-10-19T01:01:37.836Z,20.8
2022-10-19T01:02:39.370Z,20.9
2022-10-19T01:03:40.959Z,20.9
2022-10-19T01:04:42.539Z,20.8
2022-10-19T01:05:44.069Z,20.9
2022-10-19T01:06:45.749Z,20.8
2022-10-19T01:07:47.449Z,20.8
2022-10-19T01:08:48.992Z,20.8
2022-10-19T01:09:50.530Z,20.8
2022-10-19T01:10:52.069Z,20.8
2022-10-19T01:11:53.601Z,20.9
2022-10-19T01:12:55.215Z,20.8
2022-10-19T01:13:56.764Z,20.9
2022-10-19T01:14:58.365Z,20.9
2022-10-19T01:15:59.938Z,20.9
2022-10-19T01:17:01.714Z,20.9
2022-10-19T01:18:03.256Z,20.9
2022-10-19T01:19:04.851Z,20.8
2022-10-19T01:20:06.509Z,20.9
2022-10-19T01:21:08.061Z,20.9
2022-10-19T01:22:09.610Z,20.9
2022-10-19T01:23:11.152Z,20.9
2022-10-19T01:24:12.707Z,20.9
2022-10-19T01:25:14.290Z,20.9
2022-10-19T01:26:15.842Z,20.9
2022-10-19T01:27:17.397Z,20.9
2022-10-19T01:28:18.911Z,21
2022-10-19T01:29:20.445Z,20.9
2022-10-19T01:30:22.021Z,21
2022-10-19T01:31:23.559Z,21
2022-10-19T01:32:25.107Z,21
2022-10-19T01:33:26.643Z,21
2022-10-19T01:34:28.239Z,21
2022-10-19T01:35:29.877Z,21
2022-10-19T01:36:31.452Z,21
2022-10-19T01:37:33.935Z,21
2022-10-19T01:38:36.776Z,21
2022-10-19T01:39:38.339Z,21
2022-10-19T01:40:39.928Z,21
2022-10-19T01:41:41.474Z,21
2022-10-19T01:42:43.108Z,21
2022-10-19T01:43:45.009Z,21
2022-10-19T01:44:46.551Z,21
2022-10-19T01:45:48.105Z,21
2022-10-19T01:46:49.701Z,21
2022-10-19T01:47:51.240Z,21
2022-10-19T01:48:52.808Z,21.1
2022-10-19T01:49:54.397Z,21
2022-10-19T01:50:56.007Z,21.1
2022-10-19T01:53:00.167Z,21
2022-10-19T01:54:01.725Z,21.1
2022-10-19T01:55:03.290Z,21.1
2022-10-19T01:56:04.831Z,21
2022-10-19T01:57:06.375Z,21.1
2022-10-19T01:58:09.878Z,21.1
2022-10-19T01:59:11.431Z,21.1
2022-10-19T02:00:13.004Z,21.1
2022-10-19T02:01:14.714Z,21.1
2022-10-19T02:02:16.325Z,21.1
2022-10-19T02:03:17.879Z,21.1
2022-10-19T02:04:19.419Z,21.1
2022-10-19T02:05:21.033Z,21.1
2022-10-19T02:06:22.664Z,21.1
2022-10-19T02:07:24.202Z,21.1
2022-10-19T02:08:25.786Z,21.1
2022-10-19T02:09:27.403Z,21.1
2022-10-19T02:10:28.947Z,21.1
2022-10-19T02:11:30.487Z,21.1
2022-10-19T02:12:33.088Z,21.1
2022-10-19T02:13:36.297Z,21.1
2022-10-19T02:14:37.825Z,21.1
2022-10-19T02:15:39.370Z,21.1
2022-10-19T02:16:40.907Z,21.1
2022-10-19T02:17:43.218Z,21.1
2022-10-19T02:18:44.833Z,21.1
2022-10-19T02:19:46.359Z,21.2
2022-10-19T02:20:47.947Z,21.1
2022-10-19T02:21:49.564Z,21.2
2022-10-19T02:22:51.858Z,21.2
2022-10-19T02:23:54.596Z,21.2
2022-10-19T02:24:56.177Z,21.2
2022-10-19T02:25:57.756Z,21.2
2022-10-19T02:27:02.067Z,21.2
2022-10-19T02:28:03.661Z,21.2
2022-10-19T02:29:05.291Z,21.2
2022-10-19T02:30:06.823Z,21.2
2022-10-19T02:31:08.359Z,21.2
2022-10-19T02:32:09.897Z,21.1
2022-10-19T02:33:11.513Z,21.2
2022-10-19T02:34:13.086Z,21.2
2022-10-19T02:35:14.641Z,21.2
2022-10-19T02:36:16.232Z,21.2
2022-10-19T02:37:23.450Z,21.2
2022-10-19T02:38:27.668Z,21.2
2022-10-19T02:39:32.064Z,21.2
2022-10-19T02:40:33.632Z,21.2
2022-10-19T02:41:35.180Z,21.2
2022-10-19T02:42:37.226Z,21.3
2022-10-19T02:43:38.834Z,21.2
2022-10-19T02:44:40.432Z,21.2
2022-10-19T02:45:41.961Z,21.3
2022-10-19T02:46:43.501Z,21.2
2022-10-19T02:47:45.109Z,21.2
2022-10-19T02:48:46.611Z,21.3
2022-10-19T02:49:48.184Z,21.2
2022-10-19T02:50:49.720Z,21.3
2022-10-19T02:51:51.303Z,21.3
2022-10-19T02:52:52.944Z,21.2
2022-10-19T02:53:54.490Z,21.3
2022-10-19T02:54:56.060Z,21.3
2022-10-19T02:55:57.642Z,21.3
2022-10-19T02:56:59.180Z,21.3
2022-10-19T02:58:00.767Z,21.3
2022-10-19T02:59:02.303Z,21.3
2022-10-19T03:00:03.922Z,21.3
2022-10-19T03:01:05.617Z,21.3
2022-10-19T03:02:07.382Z,21.3
2022-10-19T03:03:08.990Z,21.3
2022-10-19T03:04:10.534Z,21.3
2022-10-19T03:05:12.069Z,21.3
2022-10-19T03:06:13.611Z,21.3
2022-10-19T03:07:15.187Z,21.3
2022-10-19T03:08:16.810Z,21.3
2022-10-19T03:09:18.451Z,21.3
2022-10-19T03:10:19.988Z,21.3
2022-10-19T03:11:21.539Z,21.3
2022-10-19T03:12:23.215Z,21.3
2022-10-19T03:13:24.754Z,21.3
2022-10-19T03:14:26.305Z,21.3
2022-10-19T03:15:27.885Z,21.3
2022-10-19T03:16:29.430Z,21.3
2022-10-19T03:17:31.512Z,21.3
2022-10-19T03:18:34.486Z,21.3
2022-10-19T03:19:36.021Z,21.3
2022-10-19T03:20:37.566Z,21.3
2022-10-19T03:21:39.105Z,21.3
2022-10-19T03:22:41.020Z,21.3
2022-10-19T03:23:42.945Z,21.3
2022-10-19T03:24:44.481Z,21.3
2022-10-19T03:25:46.050Z,21.3
2022-10-19T03:26:47.603Z,21.3
2022-10-19T03:27:49.198Z,21.3
2022-10-19T03:28:50.822Z,21.3
2022-10-19T03:29:52.496Z,21.3
2022-10-19T03:30:54.044Z,21.3
2022-10-19T03:31:55.623Z,21.2
2022-10-19T03:32:57.186Z,21.2
2022-10-19T03:33:58.728Z,21.3
2022-10-19T03:35:00.309Z,21.2
2022-10-19T03:36:01.867Z,21.5
2022-10-19T03:37:03.439Z,21.3
2022-10-19T03:38:05.045Z,21.4
2022-10-19T03:39:06.639Z,21.1
2022-10-19T03:40:08.179Z,21.4
2022-10-19T03:41:09.733Z,21.4
2022-10-19T03:42:11.378Z,21.5
2022-10-19T03:43:12.929Z,21.5
2022-10-19T03:44:14.488Z,21.6
2022-10-19T03:45:16.097Z,21.6
2022-10-19T03:46:17.679Z,21.6
2022-10-19T03:47:19.507Z,21.6
2022-10-19T03:48:21.216Z,21.6
2022-10-19T03:49:22.950Z,21.6
2022-10-19T03:50:24.496Z,21.6
2022-10-19T03:51:26.036Z,21.5
2022-10-19T03:52:27.647Z,21.6
2022-10-19T03:53:32.997Z,21.7
2022-10-19T03:54:34.937Z,21.7
2022-10-19T03:55:36.478Z,21.6
2022-10-19T03:56:38.096Z,21.7
2022-10-19T03:57:39.636Z,21.6
2022-10-19T03:58:41.187Z,21.7
2022-10-19T03:59:42.757Z,21.6
2022-10-19T04:00:44.431Z,21.6
2022-10-19T04:01:46.092Z,21.7
2022-10-19T04:02:47.674Z,21.7
2022-10-19T04:03:49.213Z,21.6
2022-10-19T04:04:50.785Z,21.7
2022-10-19T04:05:52.328Z,21.7
2022-10-19T04:06:53.873Z,21.8
2022-10-19T04:07:55.437Z,21.8
2022-10-19T04:08:57.094Z,21.7
2022-10-19T04:09:58.724Z,21.8
2022-10-19T04:11:00.271Z,21.7
2022-10-19T04:12:01.842Z,21.7
2022-10-19T04:13:03.428Z,21.7
2022-10-19T04:14:05.234Z,21.9
2022-10-19T04:15:06.987Z,21.7
2022-10-19T04:16:08.542Z,21.8
2022-10-19T04:17:10.144Z,21.8
2022-10-19T04:18:11.707Z,21.9
2022-10-19T04:19:13.560Z,22
2022-10-19T04:20:15.103Z,21.8
2022-10-19T04:21:16.774Z,21.9
2022-10-19T04:22:18.317Z,21.7
2022-10-19T04:23:19.939Z,21.8
2022-10-19T04:24:21.537Z,22
2022-10-19T04:25:23.187Z,22
2022-10-19T04:26:24.774Z,21.9
2022-10-19T04:27:26.344Z,21.9
2022-10-19T04:28:28.000Z,22
2022-10-19T04:29:31.065Z,22
2022-10-19T04:30:35.639Z,22
2022-10-19T04:31:37.215Z,21.9
2022-10-19T04:32:38.779Z,21.9
2022-10-19T04:33:40.549Z,22
2022-10-19T04:34:42.566Z,22
2022-10-19T04:35:44.096Z,21.8
2022-10-19T04:36:45.659Z,21.8
2022-10-19T04:37:47.217Z,22
2022-10-19T04:38:48.784Z,21.9
2022-10-19T04:39:50.455Z,21.9
2022-10-19T04:40:52.046Z,21.9
2022-10-19T04:41:53.596Z,21.9
2022-10-19T04:42:55.156Z,21.8
2022-10-19T04:43:56.723Z,21.8
2022-10-19T04:44:58.409Z,21.8
2022-10-19T04:45:59.937Z,21.8
2022-10-19T04:47:01.480Z,21.8
2022-10-19T04:48:03.096Z,21.8
2022-10-19T04:49:04.640Z,21.7
2022-10-19T04:50:06.182Z,21.8
2022-10-19T04:51:07.703Z,21.8
2022-10-19T04:52:09.255Z,21.8
2022-10-19T04:53:10.967Z,21.7
2022-10-19T04:54:12.692Z,21.8
2022-10-19T04:55:14.275Z,21.8
2022-10-19T04:56:15.902Z,21.8
2022-10-19T04:57:17.635Z,21.8
2022-10-19T04:58:19.279Z,21.8
2022-10-19T04:59:20.889Z,21.8
2022-10-19T05:00:22.428Z,21.8
2022-10-19T05:01:24.190Z,21.8
2022-10-19T05:02:26.143Z,21.8
2022-10-19T05:03:27.701Z,21.8
2022-10-19T05:04:29.251Z,21.8
2022-10-19T05:05:30.793Z,21.8
2022-10-19T05:06:32.400Z,21.8
2022-10-19T05:07:34.520Z,21.8
2022-10-19T05:08:37.175Z,21.7
2022-10-19T05:09:38.713Z,21.7
2022-10-19T05:10:45.519Z,21.7
2022-10-19T05:11:49.542Z,21.7
2022-10-19T05:12:51.139Z,21.7
2022-10-19T05:13:52.680Z,21.7
2022-10-19T05:14:54.221Z,21.7
2022-10-19T05:15:55.760Z,21.7
2022-10-19T05:16:57.350Z,21.6
2022-10-19T05:17:58.893Z,21.6
2022-10-19T05:19:00.458Z,21.6
2022-10-19T05:20:02.007Z,21.5
2022-10-19T05:21:03.655Z,21.5
2022-10-19T05:22:05.267Z,21.5
2022-10-19T05:23:07.563Z,21.5
2022-10-19T05:24:09.113Z,21.5
2022-10-19T05:25:10.660Z,21.5
2022-10-19T05:26:12.253Z,21.4
2022-10-19T05:27:13.856Z,21.4
2022-10-19T05:28:15.390Z,21.4
2022-10-19T05:29:16.968Z,21.3
2022-10-19T05:30:18.505Z,21.3
2022-10-19T05:31:20.141Z,21.3
2022-10-19T05:32:21.703Z,21.3
2022-10-19T05:33:23.242Z,21.2
2022-10-19T05:34:24.820Z,21.2
2022-10-19T05:35:26.421Z,21.2
2022-10-19T05:36:28.019Z,21.1
2022-10-19T05:37:29.569Z,21.1
2022-10-19T05:38:31.153Z,21.1
2022-10-19T05:39:32.730Z,21
2022-10-19T05:40:34.285Z,21
2022-10-19T05:41:35.910Z,21
2022-10-19T05:42:37.496Z,20.9
2022-10-19T05:43:39.033Z,20.9
2022-10-19T05:44:40.886Z,20.9
2022-10-19T05:45:42.634Z,20.9
2022-10-19T05:46:44.297Z,20.8
2022-10-19T05:47:45.899Z,20.9
2022-10-19T05:48:47.505Z,20.8
2022-10-19T05:49:49.049Z,20.9
2022-10-19T05:50:50.590Z,20.9
2022-10-19T05:51:52.127Z,21
2022-10-19T05:52:53.686Z,20.8
2022-10-19T05:53:55.308Z,20.8
2022-10-19T05:54:56.865Z,20.8
2022-10-19T05:55:58.448Z,21
2022-10-19T05:57:00.078Z,20.9
2022-10-19T05:58:01.681Z,20.9
2022-10-19T05:59:03.268Z,20.8
2022-10-19T06:00:04.828Z,20.8
2022-10-19T06:01:06.375Z,21
2022-10-19T06:02:08.183Z,20.7
2022-10-19T06:03:09.873Z,20.7
2022-10-19T06:04:11.619Z,20.6
2022-10-19T06:05:13.272Z,20.6
2022-10-19T06:06:14.824Z,20.6
2022-10-19T06:07:16.397Z,20.6
2022-10-19T06:08:18.003Z,20.5
2022-10-19T06:09:19.536Z,20.5
2022-10-19T06:10:21.160Z,20.4
2022-10-19T06:11:22.717Z,20.5
2022-10-19T06:12:25.439Z,20.5
2022-10-19T06:13:27.130Z,20.5
2022-10-19T06:14:28.762Z,20.4
2022-10-19T06:15:30.391Z,20.4
2022-10-19T06:16:31.951Z,20.4
2022-10-19T06:17:34.239Z,20.3
2022-10-19T06:18:37.236Z,20.3
2022-10-19T06:19:38.787Z,20.3
2022-10-19T06:20:40.370Z,20.3
2022-10-19T06:21:46.134Z,20.3
2022-10-19T06:22:47.785Z,20.3
2022-10-19T06:23:49.391Z,20.2
2022-10-19T06:24:51.004Z,20.2
2022-10-19T06:25:52.549Z,20.2
2022-10-19T06:26:54.097Z,20.2
2022-10-19T06:27:55.783Z,20.2
2022-10-19T06:28:57.605Z,20.1
2022-10-19T06:29:59.207Z,20.1
2022-10-19T06:31:00.928Z,20.1
2022-10-19T06:32:02.951Z,20.4
2022-10-19T06:33:07.557Z,20.6
2022-10-19T06:34:09.459Z,20.3
2022-10-19T06:35:11.293Z,20.3
2022-10-19T06:36:12.834Z,20.4
2022-10-19T06:37:14.377Z,20.8
2022-10-19T06:38:15.928Z,20.8
2022-10-19T06:39:17.536Z,20.5
2022-10-19T06:40:19.241Z,20.4
2022-10-19T06:41:21.095Z,20.4
2022-10-19T06:42:22.672Z,20.4
2022-10-19T06:43:24.270Z,20.3
2022-10-19T06:44:25.946Z,20.4
2022-10-19T06:45:35.662Z,20.2
2022-10-19T06:46:37.687Z,20.3
2022-10-19T06:47:39.822Z,20.4
2022-10-19T06:48:41.501Z,20.3
2022-10-19T06:49:43.057Z,20.3
2022-10-19T06:50:44.593Z,20.4
2022-10-19T06:51:46.142Z,20.4
2022-10-19T06:52:47.719Z,20.4
2022-10-19T06:53:56.462Z,20.4
2022-10-19T06:54:59.187Z,20.4
2022-10-19T06:56:00.838Z,20.5
2022-10-19T06:57:02.477Z,20.4
2022-10-19T06:58:04.344Z,20.3
2022-10-19T06:59:05.999Z,20.3
2022-10-19T07:00:08.332Z,20.2
2022-10-19T07:01:10.131Z,20.3
2022-10-19T07:02:12.173Z,20.2
2022-10-19T07:03:13.786Z,20.3
2022-10-19T07:04:15.390Z,20.3
2022-10-19T07:05:16.978Z,20.1
2022-10-19T07:06:18.528Z,20.1
2022-10-19T07:07:20.115Z,20.1
2022-10-19T07:08:21.698Z,20.2
2022-10-19T07:09:23.313Z,20.2
2022-10-19T07:10:25.067Z,20.1
2022-10-19T07:11:26.840Z,20.2
2022-10-19T07:12:28.439Z,20.1
2022-10-19T07:13:30.005Z,20.3
2022-10-19T07:14:31.607Z,20.1
2022-10-19T07:15:33.216Z,20.3
2022-10-19T07:16:34.843Z,20.2
2022-10-19T07:17:37.133Z,20.1
2022-10-19T07:18:38.815Z,20.1
2022-10-19T07:19:40.506Z,20.1
2022-10-19T07:20:42.113Z,20
2022-10-19T07:21:43.686Z,20.2
2022-10-19T07:22:45.246Z,20
2022-10-19T07:23:46.809Z,20.1
2022-10-19T07:24:48.345Z,20.2
2022-10-19T07:25:49.887Z,20.2
2022-10-19T07:26:51.425Z,20.1
2022-10-19T07:27:52.982Z,20.2
2022-10-19T07:28:54.584Z,19.9
2022-10-19T07:29:56.169Z,20.1
2022-10-19T07:30:57.774Z,20.1
2022-10-19T07:31:59.394Z,20.1
2022-10-19T07:33:00.958Z,20.1
2022-10-19T07:34:02.539Z,20.2
2022-10-19T07:35:04.071Z,19.9
2022-10-19T07:36:05.657Z,19.8
2022-10-19T07:37:07.253Z,20
2022-10-19T07:38:08.790Z,20.2
2022-10-19T07:39:10.334Z,20.2
2022-10-19T07:40:11.856Z,20.2
2022-10-19T07:41:13.397Z,20.1
2022-10-19T07:42:15.194Z,20.1
2022-10-19T07:43:16.899Z,20.3
2022-10-19T07:44:18.440Z,20.1
2022-10-19T07:45:20.043Z,20.1
2022-10-19T07:46:21.714Z,20.1
2022-10-19T07:47:23.408Z,20.1
2022-10-19T07:48:25.032Z,20
2022-10-19T07:49:26.569Z,20.2
2022-10-19T07:50:28.123Z,20.1
2022-10-19T07:52:36.864Z,19.9
2022-10-19T07:53:38.895Z,19.9
2022-10-19T07:54:40.439Z,20
2022-10-19T07:55:41.980Z,20
2022-10-19T07:56:43.529Z,19.9
2022-10-19T07:57:47.217Z,20.1
2022-10-19T07:58:48.773Z,20
2022-10-19T07:59:50.323Z,20
2022-10-19T08:00:51.959Z,19.9
2022-10-19T08:01:53.833Z,19.9
2022-10-19T08:04:31.625Z,19.9
2022-10-19T08:06:05.273Z,19.8
2022-10-19T08:07:06.822Z,19.8
2022-10-19T08:08:08.372Z,19.7
2022-10-19T08:09:33.708Z,19.7
2022-10-19T08:10:55.833Z,19.8
2022-10-19T08:11:57.469Z,19.8
2022-10-19T08:12:59.009Z,19.8
2022-10-19T08:14:00.548Z,19.9
2022-10-19T08:15:02.081Z,19.9
2022-10-19T08:16:03.712Z,19.8
2022-10-19T08:17:05.412Z,19.8
2022-10-19T08:18:07.021Z,19.8
2022-10-19T08:19:08.577Z,19.9
2022-10-19T08:20:10.141Z,20
2022-10-19T08:21:11.697Z,20
2022-10-19T08:22:13.309Z,19.9
2022-10-19T08:23:14.866Z,19.9
2022-10-19T08:24:16.435Z,19.9
2022-10-19T08:25:17.994Z,19.9
2022-10-19T08:26:19.588Z,19.9
2022-10-19T08:27:21.171Z,19.9
2022-10-19T08:28:22.788Z,20
2022-10-19T08:29:29.162Z,19.9
2022-10-19T08:30:33.571Z,19.9
2022-10-19T08:31:35.873Z,19.9
2022-10-19T08:32:37.549Z,20
2022-10-19T08:33:39.085Z,20
2022-10-19T08:34:40.648Z,19.9
2022-10-19T08:35:42.245Z,19.9
2022-10-19T08:36:43.873Z,19.9
2022-10-19T08:37:46.677Z,19.9
2022-10-19T08:38:49.579Z,19.8
2022-10-19T08:39:51.144Z,19.9
2022-10-19T08:40:52.715Z,19.9
2022-10-19T08:41:54.277Z,19.9
2022-10-19T08:42:55.880Z,19.9
2022-10-19T08:43:57.661Z,19.9
2022-10-19T08:44:59.200Z,19.9
2022-10-19T08:46:00.759Z,20
2022-10-19T08:47:03.428Z,20
2022-10-19T08:48:09.194Z,20
2022-10-19T08:49:10.786Z,19.9
2022-10-19T08:50:12.463Z,19.9
2022-10-19T08:51:14.078Z,19.9
2022-10-19T08:52:15.674Z,19.9
2022-10-19T08:53:17.278Z,19.9
2022-10-19T08:54:18.829Z,19.9
2022-10-19T08:55:20.973Z,19.8
2022-10-19T08:56:50.827Z,19.8
2022-10-19T08:57:53.675Z,19.8
2022-10-19T08:58:55.277Z,19.8
2022-10-19T08:59:56.869Z,19.8
2022-10-19T09:00:58.415Z,19.7
2022-10-19T09:02:00.051Z,19.8
2022-10-19T09:03:01.738Z,19.9
2022-10-19T09:04:03.360Z,19.9
2022-10-19T09:05:04.940Z,19.9
2022-10-19T09:06:06.530Z,20
2022-10-19T09:07:08.253Z,20
2022-10-19T09:08:16.793Z,20.1
2022-10-19T09:09:19.438Z,20
2022-10-19T09:10:20.997Z,20
2022-10-19T09:11:22.618Z,20
2022-10-19T09:12:24.306Z,20.1
2022-10-19T09:13:41.546Z,20.2
2022-10-19T09:15:07.429Z,20.1
2022-10-19T09:16:08.968Z,20
2022-10-19T09:17:10.513Z,20
2022-10-19T09:18:12.195Z,19.9
2022-10-19T09:19:13.840Z,20
2022-10-19T09:20:15.415Z,20
2022-10-19T09:21:16.973Z,20.1
2022-10-19T09:22:18.645Z,20.1
2022-10-19T09:23:20.186Z,20
2022-10-19T09:24:21.746Z,20.1
2022-10-19T09:25:23.290Z,20.1
2022-10-19T09:26:24.908Z,20.1
2022-10-19T09:27:26.494Z,20.1
2022-10-19T09:28:36.680Z,20.2
2022-10-19T09:29:41.776Z,20.1
2022-10-19T09:30:43.351Z,20.1
2022-10-19T09:31:45.134Z,20.1
2022-10-19T09:32:46.994Z,20.1
2022-10-19T09:33:48.628Z,20.1
2022-10-19T09:34:50.240Z,20
2022-10-19T09:35:51.807Z,20.1
2022-10-19T09:36:53.444Z,20.1
2022-10-19T09:37:55.022Z,20.2
2022-10-19T09:38:56.663Z,20.2
2022-10-19T09:39:58.229Z,20.3
2022-10-19T09:40:59.886Z,20.3
2022-10-19T09:42:01.461Z,20.3
2022-10-19T09:43:03.097Z,20.2
2022-10-19T09:44:05.136Z,20.1
2022-10-19T09:45:06.756Z,20.1
2022-10-19T09:46:20.240Z,20.1
2022-10-19T09:47:28.507Z,20
2022-10-19T09:48:30.094Z,20
2022-10-19T09:49:31.734Z,20.1
2022-10-19T09:50:33.392Z,20
2022-10-19T09:51:35.028Z,20.1
2022-10-19T09:52:36.564Z,20
2022-10-19T09:53:40.941Z,20
2022-10-19T09:54:42.495Z,20.1
2022-10-19T09:55:44.192Z,20.1
2022-10-19T09:56:45.976Z,20.1
2022-10-19T09:57:47.515Z,20.1
2022-10-19T09:58:49.085Z,20
2022-10-19T09:59:50.662Z,20
2022-10-19T10:00:52.270Z,19.9
2022-10-19T10:01:54.150Z,19.9
2022-10-19T10:02:56.258Z,19.9
2022-10-19T10:03:57.917Z,20
2022-10-19T10:04:59.639Z,20
2022-10-19T10:06:01.457Z,20
2022-10-19T10:07:02.999Z,20
2022-10-19T10:08:04.543Z,20
2022-10-19T10:09:06.241Z,20.1
2022-10-19T10:10:07.926Z,20.1
2022-10-19T10:11:09.521Z,20.1
2022-10-19T10:12:11.231Z,20
2022-10-19T10:13:12.832Z,20
2022-10-19T10:14:14.414Z,20.1
2022-10-19T10:15:15.979Z,20.1
2022-10-19T10:16:17.520Z,20.1
2022-10-19T10:17:19.081Z,20.2
2022-10-19T10:18:20.699Z,20.2
2022-10-19T10:19:27.209Z,20.2
2022-10-19T10:20:28.955Z,20.2
2022-10-19T10:21:30.561Z,20.3
2022-10-19T10:22:32.841Z,20.3
2022-10-19T10:23:35.653Z,20.3
2022-10-19T10:24:37.212Z,20.3
2022-10-19T10:25:38.754Z,20.1
2022-10-19T10:26:40.300Z,20.1
2022-10-19T10:27:41.864Z,20.1
2022-10-19T10:28:43.493Z,20.2
2022-10-19T10:29:45.112Z,20.2
2022-10-19T10:30:46.737Z,20.4
2022-10-19T10:31:48.282Z,20.4
2022-10-19T10:32:49.961Z,20.5
2022-10-19T10:35:00.927Z,20.3
2022-10-19T10:36:03.486Z,20.2
2022-10-19T10:37:05.071Z,19.9
2022-10-19T10:38:06.664Z,19.7
2022-10-19T10:39:08.246Z,19.7
2022-10-19T10:40:09.789Z,19.9
2022-10-19T10:41:11.337Z,20.7
2022-10-19T10:42:12.884Z,20.4
2022-10-19T10:43:14.483Z,20.3
2022-10-19T10:44:16.049Z,20.5
2022-10-19T10:45:17.589Z,20.2
2022-10-19T10:46:19.251Z,20.2
2022-10-19T10:47:20.867Z,20.3
2022-10-19T10:48:22.560Z,20.4
2022-10-19T10:49:24.138Z,19.9
2022-10-19T10:50:28.631Z,19.8
2022-10-19T10:51:30.286Z,20.1
2022-10-19T10:52:32.908Z,20.3
2022-10-19T10:53:35.570Z,20.1
2022-10-19T10:54:37.176Z,20.2
2022-10-19T10:55:38.731Z,20.3
2022-10-19T10:56:40.280Z,20.4
2022-10-19T10:57:41.843Z,20.3
2022-10-19T10:58:43.414Z,20.3
2022-10-19T10:59:45.948Z,20.5
2022-10-19T11:00:47.498Z,20.3
2022-10-19T11:01:49.335Z,20.4
2022-10-19T11:02:51.332Z,20.2
2022-10-19T11:03:52.918Z,20.2
2022-10-19T11:04:54.517Z,20.2
2022-10-19T11:05:56.089Z,20.1
2022-10-19T11:06:57.675Z,20.2
2022-10-19T11:07:59.351Z,20.2
2022-10-19T11:09:01.069Z,20.1
2022-10-19T11:10:02.979Z,20
2022-10-19T11:11:04.640Z,20
2022-10-19T11:12:06.427Z,20
2022-10-19T11:13:07.978Z,20.1
2022-10-19T11:14:09.544Z,20.1
2022-10-19T11:15:11.084Z,20.2
2022-10-19T11:16:12.710Z,20.6
2022-10-19T11:17:14.258Z,20.3
2022-10-19T11:18:15.815Z,20.5
2022-10-19T11:19:17.380Z,20.3
2022-10-19T11:20:19.092Z,20.2
2022-10-19T11:21:20.651Z,20.4
2022-10-19T11:22:27.021Z,20.4
2022-10-19T11:23:28.889Z,20.4
2022-10-19T11:25:32.137Z,20.3
2022-10-19T11:26:33.772Z,20.3
2022-10-19T11:27:36.006Z,20.3
2022-10-19T11:28:38.946Z,20.4
2022-10-19T11:29:40.518Z,20.3
2022-10-19T11:30:44.570Z,20.1
2022-10-19T11:31:52.405Z,19.8
2022-10-19T11:32:53.939Z,19.5
2022-10-19T11:33:55.601Z,19.6
2022-10-19T11:34:57.188Z,20.2
2022-10-19T11:35:58.748Z,20
2022-10-19T11:37:00.333Z,20.1
2022-10-19T11:38:21.983Z,20.1
2022-10-19T11:39:31.672Z,20.2
2022-10-19T11:40:33.270Z,20.2
2022-10-19T11:41:34.837Z,20
2022-10-19T11:42:36.479Z,20.1
2022-10-19T11:43:38.324Z,20.2
2022-10-19T11:44:40.126Z,20.3
2022-10-19T11:45:41.671Z,20.3
2022-10-19T11:46:43.325Z,20.4
2022-10-19T11:47:44.870Z,20.2
2022-10-19T11:48:46.495Z,20.1
2022-10-19T11:49:48.073Z,20.1
2022-10-19T11:50:58.757Z,20
2022-10-19T11:52:23.255Z,19.7
2022-10-19T11:53:24.939Z,19.8
2022-10-19T11:54:26.560Z,19.5
2022-10-19T11:55:28.168Z,19.5
2022-10-19T11:57:02.110Z,19.3
2022-10-19T11:58:12.959Z,19.2
2022-10-19T11:59:14.518Z,19
2022-10-19T12:00:39.454Z,19.2
2022-10-19T12:01:42.243Z,19.9
2022-10-19T12:02:44.535Z,19.8
2022-10-19T12:03:46.101Z,19.4
2022-10-19T12:04:47.648Z,19.4
2022-10-19T12:05:49.234Z,19.4
2022-10-19T12:06:50.779Z,19.6
2022-10-19T12:07:52.331Z,19.6
2022-10-19T12:08:56.612Z,19.6
2022-10-19T12:09:58.512Z,19.7
2022-10-19T12:11:00.391Z,19.8
2022-10-19T12:12:01.949Z,19.6
2022-10-19T12:13:03.491Z,19.6
2022-10-19T12:14:05.053Z,19.7
2022-10-19T12:15:06.608Z,19.9
2022-10-19T12:16:08.189Z,19.4
2022-10-19T12:17:09.980Z,18.8
2022-10-19T12:18:11.710Z,18.9
2022-10-19T12:19:13.264Z,18.9
2022-10-19T12:20:19.813Z,18.7
2022-10-19T12:21:21.690Z,18.7
2022-10-19T12:22:23.275Z,19
2022-10-19T12:23:24.825Z,19.2
2022-10-19T12:24:26.463Z,19.3
2022-10-19T12:25:27.984Z,19.3
2022-10-19T12:26:29.579Z,19.5
2022-10-19T12:27:31.446Z,19.4
2022-10-19T12:28:33.830Z,19.4
2022-10-19T12:29:35.407Z,19.4
2022-10-19T12:30:37.002Z,19.5
2022-10-19T12:31:38.571Z,19.5
2022-10-19T12:32:40.128Z,19.5
2022-10-19T12:33:41.751Z,19.4
2022-10-19T12:34:43.316Z,19.4
2022-10-19T12:35:44.878Z,19.5
2022-10-19T12:36:46.474Z,19.4
2022-10-19T12:37:48.055Z,19.5
2022-10-19T12:38:59.673Z,19.5
2022-10-19T12:40:02.394Z,19.5
2022-10-19T12:41:03.947Z,19.6
2022-10-19T12:42:05.552Z,19.6
2022-10-19T12:43:07.152Z,19.4
2022-10-19T12:44:08.714Z,19.5
2022-10-19T12:45:10.278Z,19.5
2022-10-19T12:46:11.828Z,19.5
2022-10-19T12:47:13.420Z,19.6
2022-10-19T12:48:14.982Z,19.8
2022-10-19T12:49:16.794Z,19.7
2022-10-19T12:51:22.922Z,19.5
2022-10-19T12:52:24.537Z,19.5
2022-10-19T12:54:27.645Z,19.6
2022-10-19T12:55:29.383Z,19.6
2022-10-19T12:56:31.006Z,19.8
2022-10-19T12:57:32.697Z,19.8
2022-10-19T12:58:34.345Z,19.5
2022-10-19T12:59:35.956Z,19.5
2022-10-19T13:00:37.715Z,19.5
2022-10-19T13:01:39.894Z,19.6
2022-10-19T13:02:41.532Z,19.6
2022-10-19T13:03:43.687Z,19.6
2022-10-19T13:04:45.299Z,19.7
2022-10-19T13:05:46.924Z,19.7
2022-10-19T13:06:48.535Z,19.7
2022-10-19T13:08:53.159Z,19.7
2022-10-19T13:09:54.998Z,19.8
2022-10-19T13:10:56.600Z,19.8
2022-10-19T13:11:58.192Z,19.8
2022-10-19T13:12:59.796Z,19.8
2022-10-19T13:14:01.342Z,19.6
2022-10-19T13:15:02.944Z,19.7
2022-10-19T13:16:04.605Z,19.5
2022-10-19T13:17:06.215Z,19.8
2022-10-19T13:18:07.774Z,19.8
2022-10-19T13:19:09.350Z,19.9
2022-10-19T13:20:11.065Z,20
2022-10-19T13:21:12.693Z,19.9
2022-10-19T13:22:14.337Z,19.9
2022-10-19T13:23:15.902Z,19.8
2022-10-19T13:24:17.486Z,19.8
2022-10-19T13:25:19.455Z,19.9
2022-10-19T13:26:21.046Z,19.9
2022-10-19T13:27:22.588Z,20.1
2022-10-19T13:28:24.242Z,20
2022-10-19T13:29:26.038Z,19.9
2022-10-19T13:30:27.984Z,19.9
2022-10-19T13:31:29.762Z,19.9
2022-10-19T13:32:31.773Z,20
2022-10-19T13:33:34.572Z,20.1
2022-10-19T13:34:36.140Z,20.1
2022-10-19T13:35:37.742Z,20.1
2022-10-19T13:36:39.290Z,20.1
2022-10-19T13:37:40.835Z,20
2022-10-19T13:38:42.420Z,20
2022-10-19T13:39:43.979Z,20.1
2022-10-19T13:40:45.585Z,20
2022-10-19T13:41:47.184Z,20
2022-10-19T13:42:51.761Z,20
2022-10-19T13:43:53.403Z,20.1
2022-10-19T13:44:55.041Z,20.1
2022-10-19T13:45:56.595Z,20.1
2022-10-19T13:46:58.142Z,20.1
2022-10-19T13:47:59.683Z,20.1
2022-10-19T13:49:01.293Z,20.1
2022-10-19T13:50:02.858Z,20.1
2022-10-19T13:51:04.483Z,19.9
2022-10-19T13:52:06.001Z,20.1
2022-10-19T13:53:07.545Z,20.1
2022-10-19T13:54:09.118Z,20.2
2022-10-19T13:55:10.945Z,20.2
2022-10-19T13:56:12.491Z,20.2
2022-10-19T13:57:14.131Z,20.2
2022-10-19T13:58:15.711Z,20.1
2022-10-19T13:59:17.372Z,20.2
2022-10-19T14:00:19.278Z,20
2022-10-19T14:01:20.929Z,19.9
2022-10-19T14:02:22.924Z,19.8
2022-10-19T14:03:24.511Z,20